sensor_id;sensor_type;location;lat;lon;timestamp;P1;durP1;ratioP1;P2;durP2;ratioP2
35056;SDS011;21241;51.828;19.574;2023-11-19T00:00:30;42.90;;;39.40;;
35056;SDS011;21241;51.828;19.574;2023-11-19T00:03:23;34.90;;;31.40;;
35056;SDS011;21241;51.828;19.574;2023-11-19T00:05:51;37.90;;;34.60;;
35056;SDS011;21241;51.828;19.574;2023-11-19T00:08:19;42.00;;;38.50;;
35056;SDS011;21241;51.828;19.574;2023-11-19T00:10:47;41.60;;;38.20;;
35056;SDS011;21241;51.828;19.574;2023-11-19T00:13:18;41.50;;;38.00;;
35056;SDS011;21241;51.828;19.574;2023-11-19T00:15:49;41.50;;;38.00;;
35056;SDS011;21241;51.828;19.574;2023-11-19T00:18:22;42.40;;;38.90;;
35056;SDS011;21241;51.828;19.574;2023-11-19T00:20:50;45.80;;;42.00;;
35056;SDS011;21241;51.828;19.574;2023-11-19T00:23:18;46.20;;;42.40;;
35056;SDS011;21241;51.828;19.574;2023-11-19T00:25:46;43.30;;;39.70;;
35056;SDS011;21241;51.828;19.574;2023-11-19T00:28:15;36.80;;;33.50;;
35056;SDS011;21241;51.828;19.574;2023-11-19T00:30:45;44.60;;;40.80;;
35056;SDS011;21241;51.828;19.574;2023-11-19T00:33:13;45.90;;;42.20;;
35056;SDS011;21241;51.828;19.574;2023-11-19T00:35:41;40.20;;;36.30;;
35056;SDS011;21241;51.828;19.574;2023-11-19T00:38:09;39.00;;;35.60;;
35056;SDS011;21241;51.828;19.574;2023-11-19T00:40:37;42.70;;;39.20;;
35056;SDS011;21241;51.828;19.574;2023-11-19T00:43:04;42.30;;;38.80;;
35056;SDS011;21241;51.828;19.574;2023-11-19T00:45:33;46.40;;;42.50;;
35056;SDS011;21241;51.828;19.574;2023-11-19T00:48:01;47.40;;;43.30;;
35056;SDS011;21241;51.828;19.574;2023-11-19T00:50:29;47.10;;;43.00;;
35056;SDS011;21241;51.828;19.574;2023-11-19T00:53:01;39.60;;;35.80;;
35056;SDS011;21241;51.828;19.574;2023-11-19T00:55:31;47.10;;;43.10;;
35056;SDS011;21241;51.828;19.574;2023-11-19T00:57:59;46.20;;;42.40;;
35056;SDS011;21241;51.828;19.574;2023-11-19T01:00:27;45.30;;;41.50;;
35056;SDS011;21241;51.828;19.574;2023-11-19T01:02:55;36.50;;;33.00;;
35056;SDS011;21241;51.828;19.574;2023-11-19T01:05:23;40.20;;;36.60;;
35056;SDS011;21241;51.828;19.574;2023-11-19T01:07:51;44.10;;;40.30;;
35056;SDS011;21241;51.828;19.574;2023-11-19T01:10:22;37.90;;;34.20;;
35056;SDS011;21241;51.828;19.574;2023-11-19T01:12:50;41.10;;;37.20;;
35056;SDS011;21241;51.828;19.574;2023-11-19T01:15:18;41.70;;;38.10;;
35056;SDS011;21241;51.828;19.574;2023-11-19T01:17:47;43.60;;;39.90;;
35056;SDS011;21241;51.828;19.574;2023-11-19T01:20:17;45.00;;;41.10;;
35056;SDS011;21241;51.828;19.574;2023-11-19T01:22:46;45.20;;;41.50;;
35056;SDS011;21241;51.828;19.574;2023-11-19T01:25:17;43.30;;;39.50;;
35056;SDS011;21241;51.828;19.574;2023-11-19T01:27:46;36.00;;;32.40;;
35056;SDS011;21241;51.828;19.574;2023-11-19T01:30:13;39.00;;;35.50;;
35056;SDS011;21241;51.828;19.574;2023-11-19T01:32:41;42.00;;;38.40;;
35056;SDS011;21241;51.828;19.574;2023-11-19T01:35:09;44.70;;;40.80;;
35056;SDS011;21241;51.828;19.574;2023-11-19T01:37:38;43.10;;;39.50;;
35056;SDS011;21241;51.828;19.574;2023-11-19T01:40:06;43.00;;;39.40;;
35056;SDS011;21241;51.828;19.574;2023-11-19T01:42:39;42.80;;;39.10;;
35056;SDS011;21241;51.828;19.574;2023-11-19T01:45:08;34.90;;;31.60;;
35056;SDS011;21241;51.828;19.574;2023-11-19T01:47:37;41.20;;;37.50;;
35056;SDS011;21241;51.828;19.574;2023-11-19T01:50:06;42.60;;;38.90;;
35056;SDS011;21241;51.828;19.574;2023-11-19T01:52:34;44.10;;;40.40;;
35056;SDS011;21241;51.828;19.574;2023-11-19T01:55:06;46.50;;;42.50;;
35056;SDS011;21241;51.828;19.574;2023-11-19T01:57:37;47.20;;;43.00;;
35056;SDS011;21241;51.828;19.574;2023-11-19T02:00:07;37.20;;;33.50;;
35056;SDS011;21241;51.828;19.574;2023-11-19T02:02:40;46.10;;;42.10;;
35056;SDS011;21241;51.828;19.574;2023-11-19T02:05:10;46.90;;;42.70;;
35056;SDS011;21241;51.828;19.574;2023-11-19T02:07:39;47.80;;;43.60;;
35056;SDS011;21241;51.828;19.574;2023-11-19T02:10:07;47.20;;;43.00;;
35056;SDS011;21241;51.828;19.574;2023-11-19T02:12:40;46.90;;;42.80;;
35056;SDS011;21241;51.828;19.574;2023-11-19T02:15:12;39.90;;;36.00;;
35056;SDS011;21241;51.828;19.574;2023-11-19T02:17:40;45.30;;;41.20;;
35056;SDS011;21241;51.828;19.574;2023-11-19T02:20:09;48.50;;;44.30;;
35056;SDS011;21241;51.828;19.574;2023-11-19T02:22:40;49.90;;;45.50;;
35056;SDS011;21241;51.828;19.574;2023-11-19T02:25:10;50.10;;;45.80;;
35056;SDS011;21241;51.828;19.574;2023-11-19T02:27:53;41.20;;;37.30;;
35056;SDS011;21241;51.828;19.574;2023-11-19T02:30:23;50.20;;;45.80;;
35056;SDS011;21241;51.828;19.574;2023-11-19T02:32:55;52.20;;;47.70;;
35056;SDS011;21241;51.828;19.574;2023-11-19T02:35:25;53.50;;;48.80;;
35056;SDS011;21241;51.828;19.574;2023-11-19T02:37:54;53.20;;;48.60;;
35056;SDS011;21241;51.828;19.574;2023-11-19T02:40:22;45.10;;;40.60;;
35056;SDS011;21241;51.828;19.574;2023-11-19T02:42:53;54.30;;;49.50;;
35056;SDS011;21241;51.828;19.574;2023-11-19T02:45:23;56.30;;;51.50;;
35056;SDS011;21241;51.828;19.574;2023-11-19T02:47:53;55.90;;;51.00;;
35056;SDS011;21241;51.828;19.574;2023-11-19T02:50:22;54.50;;;49.40;;
35056;SDS011;21241;51.828;19.574;2023-11-19T02:52:54;46.10;;;41.70;;
35056;SDS011;21241;51.828;19.574;2023-11-19T02:55:26;52.50;;;48.10;;
35056;SDS011;21241;51.828;19.574;2023-11-19T02:57:56;52.80;;;48.30;;
35056;SDS011;21241;51.828;19.574;2023-11-19T03:00:27;46.20;;;41.70;;
35056;SDS011;21241;51.828;19.574;2023-11-19T03:03:03;54.00;;;49.30;;
35056;SDS011;21241;51.828;19.574;2023-11-19T03:05:47;45.40;;;40.80;;
35056;SDS011;21241;51.828;19.574;2023-11-19T03:08:15;54.00;;;49.30;;
35056;SDS011;21241;51.828;19.574;2023-11-19T03:10:47;54.20;;;49.30;;
35056;SDS011;21241;51.828;19.574;2023-11-19T03:13:15;54.10;;;49.20;;
35056;SDS011;21241;51.828;19.574;2023-11-19T03:15:45;55.10;;;50.20;;
35056;SDS011;21241;51.828;19.574;2023-11-19T03:18:13;45.60;;;41.00;;
35056;SDS011;21241;51.828;19.574;2023-11-19T03:20:41;54.00;;;49.20;;
35056;SDS011;21241;51.828;19.574;2023-11-19T03:23:09;54.00;;;49.20;;
35056;SDS011;21241;51.828;19.574;2023-11-19T03:25:38;53.80;;;49.20;;
35056;SDS011;21241;51.828;19.574;2023-11-19T03:28:06;45.10;;;40.50;;
35056;SDS011;21241;51.828;19.574;2023-11-19T03:30:34;49.80;;;45.40;;
35056;SDS011;21241;51.828;19.574;2023-11-19T03:33:02;54.80;;;50.10;;
35056;SDS011;21241;51.828;19.574;2023-11-19T03:35:31;54.10;;;49.50;;
35056;SDS011;21241;51.828;19.574;2023-11-19T03:38:00;54.10;;;49.00;;
35056;SDS011;21241;51.828;19.574;2023-11-19T03:40:29;45.80;;;41.30;;
35056;SDS011;21241;51.828;19.574;2023-11-19T03:42:57;50.00;;;45.30;;
35056;SDS011;21241;51.828;19.574;2023-11-19T03:45:28;53.20;;;48.70;;
35056;SDS011;21241;51.828;19.574;2023-11-19T03:47:56;53.80;;;49.10;;
35056;SDS011;21241;51.828;19.574;2023-11-19T03:50:24;53.90;;;49.30;;
35056;SDS011;21241;51.828;19.574;2023-11-19T03:52:52;55.50;;;50.70;;
35056;SDS011;21241;51.828;19.574;2023-11-19T03:55:20;57.60;;;52.60;;
35056;SDS011;21241;51.828;19.574;2023-11-19T03:57:48;57.40;;;52.40;;
35056;SDS011;21241;51.828;19.574;2023-11-19T04:00:16;58.80;;;53.60;;
35056;SDS011;21241;51.828;19.574;2023-11-19T04:02:45;61.70;;;56.10;;
35056;SDS011;21241;51.828;19.574;2023-11-19T04:05:15;61.70;;;56.00;;
35056;SDS011;21241;51.828;19.574;2023-11-19T04:07:43;61.80;;;56.10;;
35056;SDS011;21241;51.828;19.574;2023-11-19T04:10:12;61.00;;;55.30;;
35056;SDS011;21241;51.828;19.574;2023-11-19T04:12:40;63.00;;;57.10;;
35056;SDS011;21241;51.828;19.574;2023-11-19T04:15:08;65.90;;;59.70;;
35056;SDS011;21241;51.828;19.574;2023-11-19T04:17:36;62.10;;;56.30;;
35056;SDS011;21241;51.828;19.574;2023-11-19T04:20:04;63.70;;;57.70;;
35056;SDS011;21241;51.828;19.574;2023-11-19T04:22:33;63.90;;;58.10;;
35056;SDS011;21241;51.828;19.574;2023-11-19T04:25:01;61.10;;;55.30;;
35056;SDS011;21241;51.828;19.574;2023-11-19T04:27:30;60.00;;;54.50;;
35056;SDS011;21241;51.828;19.574;2023-11-19T04:29:57;62.40;;;56.70;;
35056;SDS011;21241;51.828;19.574;2023-11-19T04:32:25;60.90;;;55.30;;
35056;SDS011;21241;51.828;19.574;2023-11-19T04:34:54;63.00;;;57.20;;
35056;SDS011;21241;51.828;19.574;2023-11-19T04:37:22;61.20;;;55.60;;
35056;SDS011;21241;51.828;19.574;2023-11-19T04:39:51;61.30;;;55.70;;
35056;SDS011;21241;51.828;19.574;2023-11-19T04:42:19;63.50;;;57.70;;
35056;SDS011;21241;51.828;19.574;2023-11-19T04:44:49;60.20;;;54.40;;
35056;SDS011;21241;51.828;19.574;2023-11-19T04:47:17;59.90;;;54.50;;
35056;SDS011;21241;51.828;19.574;2023-11-19T04:49:45;58.40;;;53.00;;
35056;SDS011;21241;51.828;19.574;2023-11-19T04:52:13;59.70;;;54.30;;
35056;SDS011;21241;51.828;19.574;2023-11-19T04:54:41;60.80;;;55.10;;
35056;SDS011;21241;51.828;19.574;2023-11-19T04:57:13;61.00;;;55.20;;
35056;SDS011;21241;51.828;19.574;2023-11-19T04:59:41;59.70;;;54.30;;
35056;SDS011;21241;51.828;19.574;2023-11-19T05:02:09;58.70;;;53.30;;
35056;SDS011;21241;51.828;19.574;2023-11-19T05:04:41;60.50;;;55.30;;
35056;SDS011;21241;51.828;19.574;2023-11-19T05:07:11;58.40;;;53.10;;
35056;SDS011;21241;51.828;19.574;2023-11-19T05:09:39;58.40;;;53.40;;
35056;SDS011;21241;51.828;19.574;2023-11-19T05:12:07;58.10;;;53.00;;
35056;SDS011;21241;51.828;19.574;2023-11-19T05:14:39;59.30;;;54.00;;
35056;SDS011;21241;51.828;19.574;2023-11-19T05:17:07;54.90;;;50.00;;
35056;SDS011;21241;51.828;19.574;2023-11-19T05:19:35;53.60;;;48.80;;
35056;SDS011;21241;51.828;19.574;2023-11-19T05:22:03;54.90;;;50.00;;
35056;SDS011;21241;51.828;19.574;2023-11-19T05:24:31;54.00;;;49.30;;
35056;SDS011;21241;51.828;19.574;2023-11-19T05:26:59;52.20;;;47.80;;
35056;SDS011;21241;51.828;19.574;2023-11-19T05:29:27;51.20;;;46.80;;
35056;SDS011;21241;51.828;19.574;2023-11-19T05:31:55;53.20;;;48.50;;
35056;SDS011;21241;51.828;19.574;2023-11-19T05:34:23;50.70;;;46.40;;
35056;SDS011;21241;51.828;19.574;2023-11-19T05:36:52;50.30;;;46.00;;
35056;SDS011;21241;51.828;19.574;2023-11-19T05:39:20;50.20;;;45.90;;
35056;SDS011;21241;51.828;19.574;2023-11-19T05:41:49;50.40;;;45.80;;
35056;SDS011;21241;51.828;19.574;2023-11-19T05:44:17;41.90;;;37.70;;
35056;SDS011;21241;51.828;19.574;2023-11-19T05:46:46;47.90;;;43.80;;
35056;SDS011;21241;51.828;19.574;2023-11-19T05:49:14;49.40;;;45.00;;
35056;SDS011;21241;51.828;19.574;2023-11-19T05:51:42;49.10;;;44.90;;
35056;SDS011;21241;51.828;19.574;2023-11-19T05:54:10;48.90;;;44.60;;
35056;SDS011;21241;51.828;19.574;2023-11-19T05:56:38;46.70;;;42.70;;
35056;SDS011;21241;51.828;19.574;2023-11-19T05:59:06;45.00;;;41.10;;
35056;SDS011;21241;51.828;19.574;2023-11-19T06:01:42;47.50;;;43.60;;
35056;SDS011;21241;51.828;19.574;2023-11-19T06:04:10;46.60;;;42.80;;
35056;SDS011;21241;51.828;19.574;2023-11-19T06:06:38;45.50;;;41.70;;
35056;SDS011;21241;51.828;19.574;2023-11-19T06:09:08;43.70;;;40.00;;
35056;SDS011;21241;51.828;19.574;2023-11-19T06:11:41;44.00;;;40.30;;
35056;SDS011;21241;51.828;19.574;2023-11-19T06:14:09;44.20;;;40.50;;
35056;SDS011;21241;51.828;19.574;2023-11-19T06:16:37;43.20;;;39.60;;
35056;SDS011;21241;51.828;19.574;2023-11-19T06:19:08;42.90;;;39.40;;
35056;SDS011;21241;51.828;19.574;2023-11-19T06:21:36;37.60;;;34.10;;
35056;SDS011;21241;51.828;19.574;2023-11-19T06:24:04;40.50;;;36.70;;
35056;SDS011;21241;51.828;19.574;2023-11-19T06:26:32;43.30;;;39.80;;
35056;SDS011;21241;51.828;19.574;2023-11-19T06:29:00;44.10;;;40.60;;
35056;SDS011;21241;51.828;19.574;2023-11-19T06:31:28;44.20;;;40.60;;
35056;SDS011;21241;51.828;19.574;2023-11-19T06:33:56;44.30;;;40.70;;
35056;SDS011;21241;51.828;19.574;2023-11-19T06:36:25;42.50;;;39.00;;
35056;SDS011;21241;51.828;19.574;2023-11-19T06:38:54;43.50;;;39.90;;
35056;SDS011;21241;51.828;19.574;2023-11-19T06:41:22;44.90;;;41.20;;
35056;SDS011;21241;51.828;19.574;2023-11-19T06:43:50;45.00;;;41.20;;
35056;SDS011;21241;51.828;19.574;2023-11-19T06:46:20;44.90;;;41.10;;
35056;SDS011;21241;51.828;19.574;2023-11-19T06:48:48;43.80;;;40.30;;
35056;SDS011;21241;51.828;19.574;2023-11-19T06:51:16;44.80;;;40.80;;
35056;SDS011;21241;51.828;19.574;2023-11-19T06:53:44;43.10;;;39.40;;
35056;SDS011;21241;51.828;19.574;2023-11-19T06:56:24;44.40;;;40.60;;
35056;SDS011;21241;51.828;19.574;2023-11-19T06:58:53;43.30;;;39.70;;
35056;SDS011;21241;51.828;19.574;2023-11-19T07:01:21;42.90;;;39.30;;
35056;SDS011;21241;51.828;19.574;2023-11-19T07:03:49;43.70;;;40.00;;
35056;SDS011;21241;51.828;19.574;2023-11-19T07:06:19;42.50;;;39.00;;
35056;SDS011;21241;51.828;19.574;2023-11-19T07:08:46;42.20;;;38.60;;
35056;SDS011;21241;51.828;19.574;2023-11-19T07:11:14;41.70;;;38.20;;
35056;SDS011;21241;51.828;19.574;2023-11-19T07:13:44;41.90;;;37.90;;
35056;SDS011;21241;51.828;19.574;2023-11-19T07:16:14;40.50;;;37.10;;
35056;SDS011;21241;51.828;19.574;2023-11-19T07:18:42;40.00;;;36.70;;
35056;SDS011;21241;51.828;19.574;2023-11-19T07:21:11;41.30;;;37.90;;
35056;SDS011;21241;51.828;19.574;2023-11-19T07:23:39;37.70;;;34.50;;
35056;SDS011;21241;51.828;19.574;2023-11-19T07:26:08;39.40;;;36.20;;
35056;SDS011;21241;51.828;19.574;2023-11-19T07:28:36;37.80;;;34.60;;
35056;SDS011;21241;51.828;19.574;2023-11-19T07:31:04;37.30;;;34.10;;
35056;SDS011;21241;51.828;19.574;2023-11-19T07:33:32;38.40;;;35.20;;
35056;SDS011;21241;51.828;19.574;2023-11-19T07:36:00;36.70;;;33.70;;
35056;SDS011;21241;51.828;19.574;2023-11-19T07:38:28;37.60;;;34.50;;
35056;SDS011;21241;51.828;19.574;2023-11-19T07:40:56;35.50;;;32.40;;
35056;SDS011;21241;51.828;19.574;2023-11-19T07:43:24;33.60;;;30.80;;
35056;SDS011;21241;51.828;19.574;2023-11-19T07:45:52;35.50;;;32.50;;
35056;SDS011;21241;51.828;19.574;2023-11-19T07:48:20;35.40;;;32.40;;
35056;SDS011;21241;51.828;19.574;2023-11-19T07:50:54;33.20;;;30.40;;
35056;SDS011;21241;51.828;19.574;2023-11-19T07:53:22;34.50;;;31.70;;
35056;SDS011;21241;51.828;19.574;2023-11-19T07:55:50;33.80;;;30.90;;
35056;SDS011;21241;51.828;19.574;2023-11-19T07:58:18;33.40;;;30.70;;
35056;SDS011;21241;51.828;19.574;2023-11-19T08:00:46;33.60;;;30.90;;
35056;SDS011;21241;51.828;19.574;2023-11-19T08:03:14;34.30;;;31.40;;
35056;SDS011;21241;51.828;19.574;2023-11-19T08:05:42;33.60;;;30.90;;
35056;SDS011;21241;51.828;19.574;2023-11-19T08:08:10;32.90;;;30.30;;
35056;SDS011;21241;51.828;19.574;2023-11-19T08:10:38;32.00;;;29.30;;
35056;SDS011;21241;51.828;19.574;2023-11-19T08:13:07;32.70;;;29.90;;
35056;SDS011;21241;51.828;19.574;2023-11-19T08:15:35;34.00;;;31.00;;
35056;SDS011;21241;51.828;19.574;2023-11-19T08:18:03;33.40;;;30.70;;
35056;SDS011;21241;51.828;19.574;2023-11-19T08:20:31;34.50;;;31.60;;
35056;SDS011;21241;51.828;19.574;2023-11-19T08:22:59;34.50;;;31.50;;
35056;SDS011;21241;51.828;19.574;2023-11-19T08:25:27;35.00;;;32.00;;
35056;SDS011;21241;51.828;19.574;2023-11-19T08:27:55;33.80;;;30.90;;
35056;SDS011;21241;51.828;19.574;2023-11-19T08:30:23;34.60;;;31.60;;
35056;SDS011;21241;51.828;19.574;2023-11-19T08:32:51;35.50;;;32.40;;
35056;SDS011;21241;51.828;19.574;2023-11-19T08:35:19;34.90;;;31.70;;
35056;SDS011;21241;51.828;19.574;2023-11-19T08:37:47;35.80;;;32.80;;
35056;SDS011;21241;51.828;19.574;2023-11-19T08:40:15;34.70;;;31.80;;
35056;SDS011;21241;51.828;19.574;2023-11-19T08:42:43;36.40;;;33.30;;
35056;SDS011;21241;51.828;19.574;2023-11-19T08:45:11;35.30;;;32.20;;
35056;SDS011;21241;51.828;19.574;2023-11-19T08:47:39;36.60;;;33.40;;
35056;SDS011;21241;51.828;19.574;2023-11-19T08:50:08;37.10;;;34.00;;
35056;SDS011;21241;51.828;19.574;2023-11-19T08:52:37;34.40;;;31.40;;
35056;SDS011;21241;51.828;19.574;2023-11-19T08:55:05;35.70;;;32.60;;
35056;SDS011;21241;51.828;19.574;2023-11-19T08:57:33;35.80;;;32.70;;
35056;SDS011;21241;51.828;19.574;2023-11-19T09:00:01;36.40;;;33.20;;
35056;SDS011;21241;51.828;19.574;2023-11-19T09:02:35;35.40;;;32.30;;
35056;SDS011;21241;51.828;19.574;2023-11-19T09:05:05;35.90;;;32.80;;
35056;SDS011;21241;51.828;19.574;2023-11-19T09:07:36;36.90;;;33.60;;
35056;SDS011;21241;51.828;19.574;2023-11-19T09:10:04;36.70;;;33.60;;
35056;SDS011;21241;51.828;19.574;2023-11-19T09:12:33;36.80;;;33.50;;
35056;SDS011;21241;51.828;19.574;2023-11-19T09:15:01;37.50;;;34.20;;
35056;SDS011;21241;51.828;19.574;2023-11-19T09:17:29;36.30;;;33.10;;
35056;SDS011;21241;51.828;19.574;2023-11-19T09:19:57;34.50;;;31.30;;
35056;SDS011;21241;51.828;19.574;2023-11-19T09:22:25;34.10;;;30.90;;
35056;SDS011;21241;51.828;19.574;2023-11-19T09:24:53;36.10;;;32.80;;
35056;SDS011;21241;51.828;19.574;2023-11-19T09:27:21;36.20;;;32.70;;
35056;SDS011;21241;51.828;19.574;2023-11-19T09:29:49;37.00;;;33.60;;
35056;SDS011;21241;51.828;19.574;2023-11-19T09:32:22;35.50;;;32.20;;
35056;SDS011;21241;51.828;19.574;2023-11-19T09:34:50;34.70;;;31.50;;
35056;SDS011;21241;51.828;19.574;2023-11-19T09:37:18;32.50;;;29.40;;
35056;SDS011;21241;51.828;19.574;2023-11-19T09:39:49;34.20;;;31.10;;
35056;SDS011;21241;51.828;19.574;2023-11-19T09:42:17;33.50;;;30.50;;
35056;SDS011;21241;51.828;19.574;2023-11-19T09:44:45;33.60;;;30.50;;
35056;SDS011;21241;51.828;19.574;2023-11-19T09:47:16;33.80;;;30.70;;
35056;SDS011;21241;51.828;19.574;2023-11-19T09:49:44;34.80;;;31.50;;
35056;SDS011;21241;51.828;19.574;2023-11-19T09:52:13;33.70;;;30.60;;
35056;SDS011;21241;51.828;19.574;2023-11-19T09:54:41;32.80;;;29.80;;
35056;SDS011;21241;51.828;19.574;2023-11-19T09:57:09;32.00;;;29.10;;
35056;SDS011;21241;51.828;19.574;2023-11-19T09:59:39;30.90;;;28.10;;
35056;SDS011;21241;51.828;19.574;2023-11-19T10:02:08;32.80;;;29.70;;
35056;SDS011;21241;51.828;19.574;2023-11-19T10:04:38;33.20;;;30.00;;
35056;SDS011;21241;51.828;19.574;2023-11-19T10:07:07;33.00;;;30.00;;
35056;SDS011;21241;51.828;19.574;2023-11-19T10:09:35;33.60;;;30.40;;
35056;SDS011;21241;51.828;19.574;2023-11-19T10:12:03;33.40;;;30.10;;
35056;SDS011;21241;51.828;19.574;2023-11-19T10:14:32;35.10;;;31.70;;
35056;SDS011;21241;51.828;19.574;2023-11-19T10:17:01;37.20;;;33.60;;
35056;SDS011;21241;51.828;19.574;2023-11-19T10:19:32;35.50;;;32.00;;
35056;SDS011;21241;51.828;19.574;2023-11-19T10:22:06;36.70;;;33.10;;
35056;SDS011;21241;51.828;19.574;2023-11-19T10:24:34;35.20;;;31.70;;
35056;SDS011;21241;51.828;19.574;2023-11-19T10:27:07;33.90;;;30.60;;
35056;SDS011;21241;51.828;19.574;2023-11-19T10:29:36;33.40;;;30.30;;
35056;SDS011;21241;51.828;19.574;2023-11-19T10:32:05;37.20;;;33.70;;
35056;SDS011;21241;51.828;19.574;2023-11-19T10:35:06;36.80;;;33.30;;
35056;SDS011;21241;51.828;19.574;2023-11-19T10:37:35;38.00;;;34.70;;
35056;SDS011;21241;51.828;19.574;2023-11-19T10:40:05;38.10;;;34.60;;
35056;SDS011;21241;51.828;19.574;2023-11-19T10:42:33;34.80;;;31.60;;
35056;SDS011;21241;51.828;19.574;2023-11-19T10:45:01;35.10;;;31.80;;
35056;SDS011;21241;51.828;19.574;2023-11-19T10:47:29;34.30;;;30.90;;
35056;SDS011;21241;51.828;19.574;2023-11-19T10:50:01;32.30;;;29.30;;
35056;SDS011;21241;51.828;19.574;2023-11-19T10:52:29;33.30;;;30.20;;
35056;SDS011;21241;51.828;19.574;2023-11-19T10:54:58;32.90;;;29.70;;
35056;SDS011;21241;51.828;19.574;2023-11-19T10:57:29;32.90;;;29.90;;
35056;SDS011;21241;51.828;19.574;2023-11-19T11:00:02;33.80;;;30.60;;
35056;SDS011;21241;51.828;19.574;2023-11-19T11:02:40;32.80;;;29.50;;
35056;SDS011;21241;51.828;19.574;2023-11-19T11:05:10;31.90;;;28.90;;
35056;SDS011;21241;51.828;19.574;2023-11-19T11:07:40;31.50;;;28.60;;
35056;SDS011;21241;51.828;19.574;2023-11-19T11:10:09;30.90;;;27.90;;
35056;SDS011;21241;51.828;19.574;2023-11-19T11:12:39;30.70;;;27.70;;
35056;SDS011;21241;51.828;19.574;2023-11-19T11:15:10;30.40;;;27.40;;
35056;SDS011;21241;51.828;19.574;2023-11-19T11:17:43;31.80;;;28.90;;
35056;SDS011;21241;51.828;19.574;2023-11-19T11:20:13;32.70;;;29.50;;
35056;SDS011;21241;51.828;19.574;2023-11-19T11:22:51;32.80;;;29.60;;
35056;SDS011;21241;51.828;19.574;2023-11-19T11:33:47;32.50;;;29.50;;
35056;SDS011;21241;51.828;19.574;2023-11-19T11:36:49;32.60;;;29.30;;
35056;SDS011;21241;51.828;19.574;2023-11-19T11:39:41;32.10;;;29.00;;
35056;SDS011;21241;51.828;19.574;2023-11-19T11:45:00;29.80;;;26.90;;
35056;SDS011;21241;51.828;19.574;2023-11-19T11:50:13;30.80;;;27.80;;
35056;SDS011;21241;51.828;19.574;2023-11-19T11:55:27;32.00;;;29.00;;
35056;SDS011;21241;51.828;19.574;2023-11-19T11:57:58;30.90;;;28.00;;
35056;SDS011;21241;51.828;19.574;2023-11-19T12:00:30;32.10;;;29.10;;
35056;SDS011;21241;51.828;19.574;2023-11-19T12:02:59;30.50;;;27.60;;
35056;SDS011;21241;51.828;19.574;2023-11-19T12:05:29;32.70;;;29.60;;
35056;SDS011;21241;51.828;19.574;2023-11-19T12:08:01;32.00;;;28.90;;
35056;SDS011;21241;51.828;19.574;2023-11-19T12:10:37;32.90;;;29.80;;
35056;SDS011;21241;51.828;19.574;2023-11-19T12:13:10;35.80;;;32.30;;
35056;SDS011;21241;51.828;19.574;2023-11-19T12:18:27;31.80;;;28.70;;
35056;SDS011;21241;51.828;19.574;2023-11-19T12:20:56;33.10;;;29.90;;
35056;SDS011;21241;51.828;19.574;2023-11-19T12:23:24;35.20;;;31.90;;
35056;SDS011;21241;51.828;19.574;2023-11-19T12:25:52;34.50;;;31.00;;
35056;SDS011;21241;51.828;19.574;2023-11-19T12:28:20;34.50;;;31.10;;
35056;SDS011;21241;51.828;19.574;2023-11-19T12:30:49;35.20;;;31.70;;
35056;SDS011;21241;51.828;19.574;2023-11-19T12:33:17;35.90;;;32.40;;
35056;SDS011;21241;51.828;19.574;2023-11-19T12:35:45;37.10;;;33.30;;
35056;SDS011;21241;51.828;19.574;2023-11-19T12:38:20;38.10;;;34.30;;
35056;SDS011;21241;51.828;19.574;2023-11-19T12:41:06;36.50;;;32.90;;
35056;SDS011;21241;51.828;19.574;2023-11-19T12:43:34;39.00;;;35.20;;
35056;SDS011;21241;51.828;19.574;2023-11-19T12:46:19;38.00;;;34.20;;
35056;SDS011;21241;51.828;19.574;2023-11-19T12:48:48;39.40;;;35.50;;
35056;SDS011;21241;51.828;19.574;2023-11-19T12:51:17;39.90;;;35.70;;
35056;SDS011;21241;51.828;19.574;2023-11-19T12:53:49;40.60;;;36.40;;
35056;SDS011;21241;51.828;19.574;2023-11-19T12:56:21;37.40;;;33.80;;
35056;SDS011;21241;51.828;19.574;2023-11-19T12:58:49;39.10;;;35.20;;
35056;SDS011;21241;51.828;19.574;2023-11-19T13:01:19;38.90;;;35.00;;
35056;SDS011;21241;51.828;19.574;2023-11-19T13:03:48;40.00;;;35.90;;
35056;SDS011;21241;51.828;19.574;2023-11-19T13:06:17;40.80;;;36.50;;
35056;SDS011;21241;51.828;19.574;2023-11-19T13:08:49;44.20;;;39.00;;
35056;SDS011;21241;51.828;19.574;2023-11-19T13:11:32;44.90;;;40.00;;
35056;SDS011;21241;51.828;19.574;2023-11-19T13:14:04;50.70;;;45.60;;
35056;SDS011;21241;51.828;19.574;2023-11-19T13:16:33;50.40;;;45.40;;
35056;SDS011;21241;51.828;19.574;2023-11-19T13:19:01;46.10;;;41.50;;
35056;SDS011;21241;51.828;19.574;2023-11-19T13:21:31;47.80;;;43.20;;
35056;SDS011;21241;51.828;19.574;2023-11-19T13:23:59;46.00;;;41.60;;
35056;SDS011;21241;51.828;19.574;2023-11-19T13:26:27;45.80;;;41.40;;
35056;SDS011;21241;51.828;19.574;2023-11-19T13:28:55;43.10;;;39.00;;
35056;SDS011;21241;51.828;19.574;2023-11-19T13:31:23;39.00;;;35.30;;
35056;SDS011;21241;51.828;19.574;2023-11-19T13:33:51;38.00;;;34.50;;
35056;SDS011;21241;51.828;19.574;2023-11-19T13:36:19;37.20;;;33.80;;
35056;SDS011;21241;51.828;19.574;2023-11-19T13:38:47;38.20;;;34.80;;
35056;SDS011;21241;51.828;19.574;2023-11-19T13:41:15;36.20;;;32.90;;
35056;SDS011;21241;51.828;19.574;2023-11-19T13:43:43;36.40;;;33.10;;
35056;SDS011;21241;51.828;19.574;2023-11-19T13:46:11;37.40;;;34.00;;
35056;SDS011;21241;51.828;19.574;2023-11-19T13:48:40;36.10;;;32.80;;
35056;SDS011;21241;51.828;19.574;2023-11-19T13:51:08;36.10;;;32.90;;
35056;SDS011;21241;51.828;19.574;2023-11-19T13:53:38;36.20;;;32.80;;
35056;SDS011;21241;51.828;19.574;2023-11-19T13:56:09;34.60;;;31.50;;
35056;SDS011;21241;51.828;19.574;2023-11-19T13:58:37;35.10;;;31.90;;
35056;SDS011;21241;51.828;19.574;2023-11-19T14:01:05;34.40;;;31.30;;
35056;SDS011;21241;51.828;19.574;2023-11-19T14:03:33;35.20;;;31.80;;
35056;SDS011;21241;51.828;19.574;2023-11-19T14:06:02;36.10;;;32.90;;
35056;SDS011;21241;51.828;19.574;2023-11-19T14:08:30;35.40;;;32.30;;
35056;SDS011;21241;51.828;19.574;2023-11-19T14:10:58;35.10;;;31.90;;
35056;SDS011;21241;51.828;19.574;2023-11-19T14:13:26;35.70;;;32.40;;
35056;SDS011;21241;51.828;19.574;2023-11-19T14:15:54;36.90;;;33.50;;
35056;SDS011;21241;51.828;19.574;2023-11-19T14:18:22;35.20;;;31.90;;
35056;SDS011;21241;51.828;19.574;2023-11-19T14:20:50;36.50;;;33.20;;
35056;SDS011;21241;51.828;19.574;2023-11-19T14:23:18;35.80;;;32.40;;
35056;SDS011;21241;51.828;19.574;2023-11-19T14:25:46;34.60;;;31.40;;
35056;SDS011;21241;51.828;19.574;2023-11-19T14:28:14;34.90;;;31.60;;
35056;SDS011;21241;51.828;19.574;2023-11-19T14:30:42;35.20;;;32.00;;
35056;SDS011;21241;51.828;19.574;2023-11-19T14:33:12;32.40;;;29.40;;
35056;SDS011;21241;51.828;19.574;2023-11-19T14:35:40;34.30;;;31.20;;
35056;SDS011;21241;51.828;19.574;2023-11-19T14:38:08;33.00;;;30.00;;
35056;SDS011;21241;51.828;19.574;2023-11-19T14:40:37;34.50;;;31.40;;